sensor_id;sensor_type;location;lat;lon;timestamp;temperature;humidity
22562;DHT22;11447;50.562;8.504;2023-03-16T00:00:39;1.50;76.60
22562;DHT22;11447;50.562;8.504;2023-03-16T00:03:11;1.60;76.40
22562;DHT22;11447;50.562;8.504;2023-03-16T00:05:37;1.30;77.30
22562;DHT22;11447;50.562;8.504;2023-03-16T00:08:06;1.00;77.40
22562;DHT22;11447;50.562;8.504;2023-03-16T00:10:35;1.10;77.40
22562;DHT22;11447;50.562;8.504;2023-03-16T00:13:04;0.40;77.40
22562;DHT22;11447;50.562;8.504;2023-03-16T00:15:31;0.60;77.40
22562;DHT22;11447;50.562;8.504;2023-03-16T00:17:57;0.70;77.40
22562;DHT22;11447;50.562;8.504;2023-03-16T00:20:24;0.60;77.40
22562;DHT22;11447;50.562;8.504;2023-03-16T00:22:51;0.60;77.40
22562;DHT22;11447;50.562;8.504;2023-03-16T00:25:17;0.50;77.40
22562;DHT22;11447;50.562;8.504;2023-03-16T00:27:44;0.20;77.40
22562;DHT22;11447;50.562;8.504;2023-03-16T00:30:11;0.30;77.40
22562;DHT22;11447;50.562;8.504;2023-03-16T00:32:38;0.40;77.40
22562;DHT22;11447;50.562;8.504;2023-03-16T00:35:05;0.10;77.40
22562;DHT22;11447;50.562;8.504;2023-03-16T00:37:35;0.00;77.40
22562;DHT22;11447;50.562;8.504;2023-03-16T00:40:03;0.00;77.40
22562;DHT22;11447;50.562;8.504;2023-03-16T00:42:30;0.00;77.40
22562;DHT22;11447;50.562;8.504;2023-03-16T00:44:59;0.00;77.40
22562;DHT22;11447;50.562;8.504;2023-03-16T00:47:31;0.00;77.40
22562;DHT22;11447;50.562;8.504;2023-03-16T00:50:00;-3276.60;77.40
22562;DHT22;11447;50.562;8.504;2023-03-16T00:52:27;0.00;77.40
22562;DHT22;11447;50.562;8.504;2023-03-16T00:54:54;-3276.70;77.40
22562;DHT22;11447;50.562;8.504;2023-03-16T00:57:24;0.00;77.40
22562;DHT22;11447;50.562;8.504;2023-03-16T00:59:51;0.00;77.40
22562;DHT22;11447;50.562;8.504;2023-03-16T01:02:18;-3276.50;77.40
22562;DHT22;11447;50.562;8.504;2023-03-16T01:04:48;-3276.50;77.40
22562;DHT22;11447;50.562;8.504;2023-03-16T01:07:19;-3276.60;77.40
22562;DHT22;11447;50.562;8.504;2023-03-16T01:09:48;-3276.60;77.40
22562;DHT22;11447;50.562;8.504;2023-03-16T01:12:17;-3276.50;77.40
22562;DHT22;11447;50.562;8.504;2023-03-16T01:14:44;-3276.50;77.40
22562;DHT22;11447;50.562;8.504;2023-03-16T01:17:16;-3276.60;77.40
22562;DHT22;11447;50.562;8.504;2023-03-16T01:19:43;-3276.60;77.40
22562;DHT22;11447;50.562;8.504;2023-03-16T01:22:10;-3276.60;77.40
22562;DHT22;11447;50.562;8.504;2023-03-16T01:24:40;-3276.50;77.40
22562;DHT22;11447;50.562;8.504;2023-03-16T01:27:07;-3276.70;77.40
22562;DHT22;11447;50.562;8.504;2023-03-16T01:29:34;-3276.60;77.40
22562;DHT22;11447;50.562;8.504;2023-03-16T01:32:01;-3276.70;77.40
22562;DHT22;11447;50.562;8.504;2023-03-16T01:34:29;-3276.70;77.40
22562;DHT22;11447;50.562;8.504;2023-03-16T01:36:57;0.00;77.40
22562;DHT22;11447;50.562;8.504;2023-03-16T01:39:23;0.00;77.40
22562;DHT22;11447;50.562;8.504;2023-03-16T01:41:50;0.00;77.40
22562;DHT22;11447;50.562;8.504;2023-03-16T01:44:20;0.00;77.40
22562;DHT22;11447;50.562;8.504;2023-03-16T01:46:48;0.10;77.40
22562;DHT22;11447;50.562;8.504;2023-03-16T01:49:30;0.10;77.40
22562;DHT22;11447;50.562;8.504;2023-03-16T01:51:59;-3276.70;77.40
22562;DHT22;11447;50.562;8.504;2023-03-16T01:54:32;0.00;77.40
22562;DHT22;11447;50.562;8.504;2023-03-16T01:59:40;0.20;77.40
22562;DHT22;11447;50.562;8.504;2023-03-16T02:02:08;0.00;77.40
22562;DHT22;11447;50.562;8.504;2023-03-16T02:07:05;0.30;77.40
22562;DHT22;11447;50.562;8.504;2023-03-16T02:09:38;0.40;77.40
22562;DHT22;11447;50.562;8.504;2023-03-16T02:12:08;0.20;77.40
22562;DHT22;11447;50.562;8.504;2023-03-16T02:14:35;0.10;77.40
22562;DHT22;11447;50.562;8.504;2023-03-16T02:17:02;0.10;77.40
22562;DHT22;11447;50.562;8.504;2023-03-16T02:19:41;0.10;77.40
22562;DHT22;11447;50.562;8.504;2023-03-16T02:22:12;0.30;77.40
22562;DHT22;11447;50.562;8.504;2023-03-16T02:24:39;0.30;77.40
22562;DHT22;11447;50.562;8.504;2023-03-16T02:27:07;0.00;77.40
22562;DHT22;11447;50.562;8.504;2023-03-16T02:32:21;0.20;77.40
22562;DHT22;11447;50.562;8.504;2023-03-16T02:34:48;0.30;77.40
22562;DHT22;11447;50.562;8.504;2023-03-16T02:37:15;0.20;77.40
22562;DHT22;11447;50.562;8.504;2023-03-16T02:39:41;0.10;77.40
22562;DHT22;11447;50.562;8.504;2023-03-16T02:42:11;-3276.60;77.40
22562;DHT22;11447;50.562;8.504;2023-03-16T02:44:38;-3276.60;77.40
22562;DHT22;11447;50.562;8.504;2023-03-16T02:47:12;-3276.40;77.40
22562;DHT22;11447;50.562;8.504;2023-03-16T02:49:43;-3276.40;77.40
22562;DHT22;11447;50.562;8.504;2023-03-16T02:52:11;0.00;77.40
22562;DHT22;11447;50.562;8.504;2023-03-16T02:54:37;-3276.70;77.40
22562;DHT22;11447;50.562;8.504;2023-03-16T02:57:07;-3276.40;77.40
22562;DHT22;11447;50.562;8.504;2023-03-16T02:59:33;-3276.50;77.40
22562;DHT22;11447;50.562;8.504;2023-03-16T03:02:02;-3276.30;77.40
22562;DHT22;11447;50.562;8.504;2023-03-16T03:04:29;-3276.00;77.40
22562;DHT22;11447;50.562;8.504;2023-03-16T03:06:55;-3275.80;77.40
22562;DHT22;11447;50.562;8.504;2023-03-16T03:09:30;-3276.00;77.40
22562;DHT22;11447;50.562;8.504;2023-03-16T03:11:58;-3276.10;77.40
22562;DHT22;11447;50.562;8.504;2023-03-16T03:14:27;-3276.20;77.40
22562;DHT22;11447;50.562;8.504;2023-03-16T03:16:56;-3276.30;77.40
22562;DHT22;11447;50.562;8.504;2023-03-16T03:19:27;-3276.50;77.40
22562;DHT22;11447;50.562;8.504;2023-03-16T03:21:54;-3276.30;77.40
22562;DHT22;11447;50.562;8.504;2023-03-16T03:24:22;-3276.50;77.40
22562;DHT22;11447;50.562;8.504;2023-03-16T03:26:51;-3276.30;77.40
22562;DHT22;11447;50.562;8.504;2023-03-16T03:29:18;-3276.30;77.40
22562;DHT22;11447;50.562;8.504;2023-03-16T03:31:45;-3276.30;77.40
22562;DHT22;11447;50.562;8.504;2023-03-16T03:34:12;-3276.00;77.40
22562;DHT22;11447;50.562;8.504;2023-03-16T03:36:38;-3276.10;77.40
22562;DHT22;11447;50.562;8.504;2023-03-16T03:39:07;-3276.00;77.40
22562;DHT22;11447;50.562;8.504;2023-03-16T03:41:35;-3276.00;77.40
22562;DHT22;11447;50.562;8.504;2023-03-16T03:44:03;-3276.10;77.40
22562;DHT22;11447;50.562;8.504;2023-03-16T03:46:29;-3276.20;77.40
22562;DHT22;11447;50.562;8.504;2023-03-16T03:48:56;-3276.20;77.40
22562;DHT22;11447;50.562;8.504;2023-03-16T03:51:28;-3276.00;77.40
22562;DHT22;11447;50.562;8.504;2023-03-16T03:53:56;-3275.80;77.40
22562;DHT22;11447;50.562;8.504;2023-03-16T03:56:23;-3275.60;77.40
22562;DHT22;11447;50.562;8.504;2023-03-16T03:58:50;-3276.00;77.40
22562;DHT22;11447;50.562;8.504;2023-03-16T04:01:17;-3275.80;77.40
22562;DHT22;11447;50.562;8.504;2023-03-16T04:03:46;-3275.90;77.40
22562;DHT22;11447;50.562;8.504;2023-03-16T04:06:13;-3276.10;77.40
22562;DHT22;11447;50.562;8.504;2023-03-16T04:08:42;-3275.90;77.40
22562;DHT22;11447;50.562;8.504;2023-03-16T04:11:08;-3276.20;77.40
22562;DHT22;11447;50.562;8.504;2023-03-16T04:13:35;-3276.20;77.40
22562;DHT22;11447;50.562;8.504;2023-03-16T04:16:04;-3276.10;77.40
22562;DHT22;11447;50.562;8.504;2023-03-16T04:18:31;-3276.20;77.40
22562;DHT22;11447;50.562;8.504;2023-03-16T04:21:04;-3276.40;77.40
22562;DHT22;11447;50.562;8.504;2023-03-16T04:23:32;-3276.50;77.40
22562;DHT22;11447;50.562;8.504;2023-03-16T04:25:59;-3276.30;77.40
22562;DHT22;11447;50.562;8.504;2023-03-16T04:28:28;-3276.10;77.40
22562;DHT22;11447;50.562;8.504;2023-03-16T04:30:55;-3275.90;77.40
22562;DHT22;11447;50.562;8.504;2023-03-16T04:33:22;-3275.90;77.40
22562;DHT22;11447;50.562;8.504;2023-03-16T04:35:48;-3276.10;77.40
22562;DHT22;11447;50.562;8.504;2023-03-16T04:38:17;-3275.90;77.40
22562;DHT22;11447;50.562;8.504;2023-03-16T04:40:44;-3276.10;77.40
22562;DHT22;11447;50.562;8.504;2023-03-16T04:43:10;-3276.00;77.40
22562;DHT22;11447;50.562;8.504;2023-03-16T04:45:39;-3275.80;77.40
22562;DHT22;11447;50.562;8.504;2023-03-16T04:48:06;-3276.00;77.40
22562;DHT22;11447;50.562;8.504;2023-03-16T04:50:33;-3275.80;77.40
22562;DHT22;11447;50.562;8.504;2023-03-16T04:52:59;-3275.70;77.40
22562;DHT22;11447;50.562;8.504;2023-03-16T04:55:26;-3275.50;77.40
22562;DHT22;11447;50.562;8.504;2023-03-16T04:57:53;-3275.30;77.40
22562;DHT22;11447;50.562;8.504;2023-03-16T05:00:20;-3275.50;77.40
22562;DHT22;11447;50.562;8.504;2023-03-16T05:02:49;-3275.40;77.40
22562;DHT22;11447;50.562;8.504;2023-03-16T05:05:16;-3275.30;77.40
22562;DHT22;11447;50.562;8.504;2023-03-16T05:07:43;-3275.50;77.40
22562;DHT22;11447;50.562;8.504;2023-03-16T05:10:14;-3275.30;77.40
22562;DHT22;11447;50.562;8.504;2023-03-16T05:12:41;-3275.30;77.40
22562;DHT22;11447;50.562;8.504;2023-03-16T05:15:07;-3275.60;77.40
22562;DHT22;11447;50.562;8.504;2023-03-16T05:17:34;-3275.70;77.40
22562;DHT22;11447;50.562;8.504;2023-03-16T05:20:01;-3275.60;77.40
22562;DHT22;11447;50.562;8.504;2023-03-16T05:22:30;-3275.70;77.40
22562;DHT22;11447;50.562;8.504;2023-03-16T05:24:57;-3275.70;77.40
22562;DHT22;11447;50.562;8.504;2023-03-16T05:27:28;-3275.80;77.40
22562;DHT22;11447;50.562;8.504;2023-03-16T05:29:55;-3275.80;77.40
22562;DHT22;11447;50.562;8.504;2023-03-16T05:32:22;-3275.80;77.40
22562;DHT22;11447;50.562;8.504;2023-03-16T05:34:49;-3275.80;77.40
22562;DHT22;11447;50.562;8.504;2023-03-16T05:37:18;-3276.10;77.40
22562;DHT22;11447;50.562;8.504;2023-03-16T05:39:45;-3275.80;77.40
22562;DHT22;11447;50.562;8.504;2023-03-16T05:42:11;-3276.00;77.40
22562;DHT22;11447;50.562;8.504;2023-03-16T05:44:41;-3276.00;77.40
22562;DHT22;11447;50.562;8.504;2023-03-16T05:47:10;-3276.10;77.40
22562;DHT22;11447;50.562;8.504;2023-03-16T05:49:37;-3276.20;77.40
22562;DHT22;11447;50.562;8.504;2023-03-16T05:52:03;-3276.20;77.40
22562;DHT22;11447;50.562;8.504;2023-03-16T05:54:30;-3276.20;77.40
22562;DHT22;11447;50.562;8.504;2023-03-16T05:56:56;-3276.20;77.40
22562;DHT22;11447;50.562;8.504;2023-03-16T05:59:23;-3276.30;77.40
22562;DHT22;11447;50.562;8.504;2023-03-16T06:01:50;-3276.30;77.40
22562;DHT22;11447;50.562;8.504;2023-03-16T06:04:16;-3276.00;77.40
22562;DHT22;11447;50.562;8.504;2023-03-16T06:06:43;-3276.00;77.40
22562;DHT22;11447;50.562;8.504;2023-03-16T06:09:09;-3276.00;77.40
22562;DHT22;11447;50.562;8.504;2023-03-16T06:11:36;-3276.20;77.40
22562;DHT22;11447;50.562;8.504;2023-03-16T06:14:02;-3275.80;77.40
22562;DHT22;11447;50.562;8.504;2023-03-16T06:16:29;-3275.60;77.40
22562;DHT22;11447;50.562;8.504;2023-03-16T06:18:56;-3275.70;77.40
22562;DHT22;11447;50.562;8.504;2023-03-16T06:21:25;-3275.70;77.40
22562;DHT22;11447;50.562;8.504;2023-03-16T06:23:52;-3275.70;77.40
22562;DHT22;11447;50.562;8.504;2023-03-16T06:26:21;-3275.90;77.40
22562;DHT22;11447;50.562;8.504;2023-03-16T06:28:47;-3275.80;77.40
22562;DHT22;11447;50.562;8.504;2023-03-16T06:31:14;-3275.90;77.40
22562;DHT22;11447;50.562;8.504;2023-03-16T06:33:41;-3276.00;77.40
22562;DHT22;11447;50.562;8.504;2023-03-16T06:36:10;-3276.10;77.40
22562;DHT22;11447;50.562;8.504;2023-03-16T06:38:40;-3276.10;77.40
22562;DHT22;11447;50.562;8.504;2023-03-16T06:41:06;-3276.30;77.40
22562;DHT22;11447;50.562;8.504;2023-03-16T06:43:33;-3276.10;77.40
22562;DHT22;11447;50.562;8.504;2023-03-16T06:46:02;-3276.00;77.40
22562;DHT22;11447;50.562;8.504;2023-03-16T06:48:31;-3276.00;77.40
22562;DHT22;11447;50.562;8.504;2023-03-16T06:51:00;-3276.10;77.40
22562;DHT22;11447;50.562;8.504;2023-03-16T06:53:29;-3276.30;77.40
22562;DHT22;11447;50.562;8.504;2023-03-16T06:55:56;-3276.40;77.40
22562;DHT22;11447;50.562;8.504;2023-03-16T06:58:22;-3276.40;77.40
22562;DHT22;11447;50.562;8.504;2023-03-16T07:00:49;-3276.60;77.40
22562;DHT22;11447;50.562;8.504;2023-03-16T07:03:17;-3276.60;77.40
22562;DHT22;11447;50.562;8.504;2023-03-16T07:05:45;-3276.60;77.40
22562;DHT22;11447;50.562;8.504;2023-03-16T07:08:11;-3276.60;77.40
22562;DHT22;11447;50.562;8.504;2023-03-16T07:10:40;-3276.60;77.40
22562;DHT22;11447;50.562;8.504;2023-03-16T07:13:07;-3276.60;77.40
22562;DHT22;11447;50.562;8.504;2023-03-16T07:15:34;0.00;77.40
22562;DHT22;11447;50.562;8.504;2023-03-16T07:18:00;0.00;77.40
22562;DHT22;11447;50.562;8.504;2023-03-16T07:20:27;0.20;77.40
22562;DHT22;11447;50.562;8.504;2023-03-16T07:22:57;0.20;77.40
22562;DHT22;11447;50.562;8.504;2023-03-16T07:25:26;0.30;77.40
22562;DHT22;11447;50.562;8.504;2023-03-16T07:27:52;0.40;77.40
22562;DHT22;11447;50.562;8.504;2023-03-16T07:30:19;0.30;77.40
22562;DHT22;11447;50.562;8.504;2023-03-16T07:32:45;0.40;77.40
22562;DHT22;11447;50.562;8.504;2023-03-16T07:35:12;0.50;77.40
22562;DHT22;11447;50.562;8.504;2023-03-16T07:37:39;0.50;77.40
22562;DHT22;11447;50.562;8.504;2023-03-16T07:40:05;0.80;77.40
22562;DHT22;11447;50.562;8.504;2023-03-16T07:42:35;0.90;77.40
22562;DHT22;11447;50.562;8.504;2023-03-16T07:45:02;1.10;77.40
22562;DHT22;11447;50.562;8.504;2023-03-16T07:47:29;1.20;77.40
22562;DHT22;11447;50.562;8.504;2023-03-16T07:49:56;1.30;77.40
22562;DHT22;11447;50.562;8.504;2023-03-16T07:52:23;1.40;77.40
22562;DHT22;11447;50.562;8.504;2023-03-16T07:54:50;1.50;77.40
22562;DHT22;11447;50.562;8.504;2023-03-16T07:57:17;1.40;77.40
22562;DHT22;11447;50.562;8.504;2023-03-16T07:59:46;1.60;77.40
22562;DHT22;11447;50.562;8.504;2023-03-16T08:02:14;1.80;77.40
22562;DHT22;11447;50.562;8.504;2023-03-16T08:04:43;2.00;77.40
22562;DHT22;11447;50.562;8.504;2023-03-16T08:07:11;2.40;77.40
22562;DHT22;11447;50.562;8.504;2023-03-16T08:09:38;2.70;77.40
22562;DHT22;11447;50.562;8.504;2023-03-16T08:12:05;2.50;77.40
22562;DHT22;11447;50.562;8.504;2023-03-16T08:14:32;2.50;77.40
22562;DHT22;11447;50.562;8.504;2023-03-16T08:17:03;2.40;77.40
22562;DHT22;11447;50.562;8.504;2023-03-16T08:19:30;2.60;77.40
22562;DHT22;11447;50.562;8.504;2023-03-16T08:21:58;2.70;77.40
22562;DHT22;11447;50.562;8.504;2023-03-16T08:24:27;2.70;77.40
22562;DHT22;11447;50.562;8.504;2023-03-16T08:26:55;2.60;77.40
22562;DHT22;11447;50.562;8.504;2023-03-16T08:29:25;2.90;77.40
22562;DHT22;11447;50.562;8.504;2023-03-16T08:31:52;2.90;77.40
22562;DHT22;11447;50.562;8.504;2023-03-16T08:34:25;3.20;77.40
22562;DHT22;11447;50.562;8.504;2023-03-16T08:36:52;3.10;77.40
22562;DHT22;11447;50.562;8.504;2023-03-16T08:39:19;3.50;77.40
22562;DHT22;11447;50.562;8.504;2023-03-16T08:41:46;3.70;77.20
22562;DHT22;11447;50.562;8.504;2023-03-16T08:44:13;4.00;76.20
22562;DHT22;11447;50.562;8.504;2023-03-16T08:46:42;4.20;76.30
22562;DHT22;11447;50.562;8.504;2023-03-16T08:49:10;4.40;75.90
22562;DHT22;11447;50.562;8.504;2023-03-16T08:51:38;4.50;73.80
22562;DHT22;11447;50.562;8.504;2023-03-16T08:54:04;4.80;72.90
22562;DHT22;11447;50.562;8.504;2023-03-16T08:56:34;5.00;71.30
22562;DHT22;11447;50.562;8.504;2023-03-16T08:59:00;5.00;70.70
22562;DHT22;11447;50.562;8.504;2023-03-16T09:01:27;5.40;69.10
22562;DHT22;11447;50.562;8.504;2023-03-16T09:03:54;5.60;69.70
22562;DHT22;11447;50.562;8.504;2023-03-16T09:06:21;5.50;68.80
22562;DHT22;11447;50.562;8.504;2023-03-16T09:08:48;5.80;68.70
22562;DHT22;11447;50.562;8.504;2023-03-16T09:11:15;5.80;69.40
22562;DHT22;11447;50.562;8.504;2023-03-16T09:13:42;6.10;68.50
22562;DHT22;11447;50.562;8.504;2023-03-16T09:16:10;6.10;68.10
22562;DHT22;11447;50.562;8.504;2023-03-16T09:18:38;6.00;66.60
22562;DHT22;11447;50.562;8.504;2023-03-16T09:21:06;6.20;66.50
22562;DHT22;11447;50.562;8.504;2023-03-16T09:23:33;6.20;67.60
22562;DHT22;11447;50.562;8.504;2023-03-16T09:26:01;6.50;66.30
22562;DHT22;11447;50.562;8.504;2023-03-16T09:28:28;6.40;66.60
22562;DHT22;11447;50.562;8.504;2023-03-16T09:30:56;6.60;64.90
22562;DHT22;11447;50.562;8.504;2023-03-16T09:33:26;6.70;66.00
22562;DHT22;11447;50.562;8.504;2023-03-16T09:35:57;6.70;66.00
22562;DHT22;11447;50.562;8.504;2023-03-16T09:38:24;6.60;64.80
22562;DHT22;11447;50.562;8.504;2023-03-16T09:41:30;6.50;66.40
22562;DHT22;11447;50.562;8.504;2023-03-16T09:43:57;6.70;64.60
22562;DHT22;11447;50.562;8.504;2023-03-16T09:48:55;6.80;64.10
22562;DHT22;11447;50.562;8.504;2023-03-16T09:51:34;7.10;65.00
22562;DHT22;11447;50.562;8.504;2023-03-16T09:54:02;7.10;64.10
22562;DHT22;11447;50.562;8.504;2023-03-16T09:56:36;7.20;64.40
22562;DHT22;11447;50.562;8.504;2023-03-16T09:59:08;7.20;63.10
22562;DHT22;11447;50.562;8.504;2023-03-16T10:04:17;7.50;64.10
22562;DHT22;11447;50.562;8.504;2023-03-16T10:06:50;7.30;63.90
22562;DHT22;11447;50.562;8.504;2023-03-16T10:09:37;7.20;64.90
22562;DHT22;11447;50.562;8.504;2023-03-16T10:12:07;7.20;65.00
22562;DHT22;11447;50.562;8.504;2023-03-16T10:14:44;7.30;62.90
22562;DHT22;11447;50.562;8.504;2023-03-16T10:19:55;7.40;65.00
22562;DHT22;11447;50.562;8.504;2023-03-16T10:22:29;7.40;63.30
22562;DHT22;11447;50.562;8.504;2023-03-16T10:27:42;7.60;61.20
22562;DHT22;11447;50.562;8.504;2023-03-16T10:30:23;7.30;62.40
22562;DHT22;11447;50.562;8.504;2023-03-16T10:32:51;7.50;63.90
22562;DHT22;11447;50.562;8.504;2023-03-16T10:37:54;7.30;63.50
22562;DHT22;11447;50.562;8.504;2023-03-16T10:40:24;7.20;63.90
22562;DHT22;11447;50.562;8.504;2023-03-16T10:42:51;7.20;65.50
22562;DHT22;11447;50.562;8.504;2023-03-16T10:45:24;7.40;64.90
22562;DHT22;11447;50.562;8.504;2023-03-16T10:48:16;7.70;65.00
22562;DHT22;11447;50.562;8.504;2023-03-16T10:50:49;7.90;63.80
22562;DHT22;11447;50.562;8.504;2023-03-16T10:53:20;8.10;63.50
22562;DHT22;11447;50.562;8.504;2023-03-16T10:55:48;8.00;63.50
22562;DHT22;11447;50.562;8.504;2023-03-16T10:58:28;8.20;63.50
22562;DHT22;11447;50.562;8.504;2023-03-16T11:00:59;8.20;61.90
22562;DHT22;11447;50.562;8.504;2023-03-16T11:06:01;8.40;62.50
22562;DHT22;11447;50.562;8.504;2023-03-16T11:08:34;8.40;62.40
22562;DHT22;11447;50.562;8.504;2023-03-16T11:11:09;8.60;62.90
22562;DHT22;11447;50.562;8.504;2023-03-16T11:13:37;8.60;61.20
22562;DHT22;11447;50.562;8.504;2023-03-16T11:18:43;8.50;60.70
22562;DHT22;11447;50.562;8.504;2023-03-16T11:21:15;8.60;61.10
22562;DHT22;11447;50.562;8.504;2023-03-16T11:23:46;8.60;60.70
22562;DHT22;11447;50.562;8.504;2023-03-16T11:26:20;8.70;61.40
22562;DHT22;11447;50.562;8.504;2023-03-16T11:28:52;8.90;60.70
22562;DHT22;11447;50.562;8.504;2023-03-16T11:31:41;9.00;61.30
22562;DHT22;11447;50.562;8.504;2023-03-16T11:34:15;8.90;60.90
22562;DHT22;11447;50.562;8.504;2023-03-16T11:36:46;9.10;60.40
22562;DHT22;11447;50.562;8.504;2023-03-16T11:44:24;9.00;58.20
22562;DHT22;11447;50.562;8.504;2023-03-16T11:46:56;9.10;58.90
22562;DHT22;11447;50.562;8.504;2023-03-16T11:52:44;9.10;60.00
22562;DHT22;11447;50.562;8.504;2023-03-16T12:49:25;9.60;57.20
22562;DHT22;11447;50.562;8.504;2023-03-16T12:51:58;9.80;58.10
22562;DHT22;11447;50.562;8.504;2023-03-16T12:54:25;9.90;58.30
22562;DHT22;11447;50.562;8.504;2023-03-16T12:56:58;9.80;56.90
22562;DHT22;11447;50.562;8.504;2023-03-16T13:01:56;9.50;59.40
22562;DHT22;11447;50.562;8.504;2023-03-16T13:04:33;9.70;57.20
22562;DHT22;11447;50.562;8.504;2023-03-16T13:07:07;9.80;58.80
22562;DHT22;11447;50.562;8.504;2023-03-16T13:09:35;9.70;57.30
22562;DHT22;11447;50.562;8.504;2023-03-16T13:12:07;9.80;58.90
22562;DHT22;11447;50.562;8.504;2023-03-16T13:17:04;9.90;58.80
22562;DHT22;11447;50.562;8.504;2023-03-16T13:19:32;9.90;58.20
22562;DHT22;11447;50.562;8.504;2023-03-16T13:24:51;10.00;56.50
22562;DHT22;11447;50.562;8.504;2023-03-16T13:29:52;10.20;56.30
22562;DHT22;11447;50.562;8.504;2023-03-16T13:32:20;9.90;57.60
22562;DHT22;11447;50.562;8.504;2023-03-16T13:34:47;10.00;57.70
22562;DHT22;11447;50.562;8.504;2023-03-16T13:37:15;10.30;57.00
22562;DHT22;11447;50.562;8.504;2023-03-16T13:39:50;10.40;56.30
22562;DHT22;11447;50.562;8.504;2023-03-16T13:42:19;10.60;55.50
22562;DHT22;11447;50.562;8.504;2023-03-16T13:44:46;10.60;57.40
22562;DHT22;11447;50.562;8.504;2023-03-16T13:47:14;10.60;57.50
22562;DHT22;11447;50.562;8.504;2023-03-16T13:49:46;10.70;56.40
22562;DHT22;11447;50.562;8.504;2023-03-16T13:52:29;10.40;56.30
22562;DHT22;11447;50.562;8.504;2023-03-16T13:54:59;10.60;56.30
22562;DHT22;11447;50.562;8.504;2023-03-16T13:57:27;10.40;56.30
22562;DHT22;11447;50.562;8.504;2023-03-16T14:02:44;10.50;56.30
22562;DHT22;11447;50.562;8.504;2023-03-16T14:05:15;10.30;55.80
22562;DHT22;11447;50.562;8.504;2023-03-16T14:07:47;10.30;56.80
22562;DHT22;11447;50.562;8.504;2023-03-16T14:10:16;10.30;57.70
22562;DHT22;11447;50.562;8.504;2023-03-16T14:57:03;10.10;58.90
22562;DHT22;11447;50.562;8.504;2023-03-16T14:59:31;10.40;58.20
22562;DHT22;11447;50.562;8.504;2023-03-16T15:02:00;10.70;58.40
22562;DHT22;11447;50.562;8.504;2023-03-16T15:04:32;10.40;57.70
22562;DHT22;11447;50.562;8.504;2023-03-16T15:07:00;10.60;57.70
22562;DHT22;11447;50.562;8.504;2023-03-16T15:09:33;10.50;57.10
22562;DHT22;11447;50.562;8.504;2023-03-16T15:12:00;10.40;57.00
22562;DHT22;11447;50.562;8.504;2023-03-16T15:14:27;10.40;56.90
22562;DHT22;11447;50.562;8.504;2023-03-16T15:17:19;10.40;57.80
22562;DHT22;11447;50.562;8.504;2023-03-16T15:19:45;10.30;58.00
22562;DHT22;11447;50.562;8.504;2023-03-16T15:22:12;10.30;58.10
22562;DHT22;11447;50.562;8.504;2023-03-16T15:24:38;10.10;58.00
22562;DHT22;11447;50.562;8.504;2023-03-16T15:27:10;10.20;57.80
22562;DHT22;11447;50.562;8.504;2023-03-16T15:29:43;10.10;58.30
22562;DHT22;11447;50.562;8.504;2023-03-16T15:32:12;10.20;58.00
22562;DHT22;11447;50.562;8.504;2023-03-16T15:34:41;10.20;57.70
22562;DHT22;11447;50.562;8.504;2023-03-16T15:37:10;10.20;57.90
22562;DHT22;11447;50.562;8.504;2023-03-16T15:39:37;10.20;58.40
22562;DHT22;11447;50.562;8.504;2023-03-16T15:42:10;10.10;59.50
22562;DHT22;11447;50.562;8.504;2023-03-16T15:44:40;10.00;58.70
22562;DHT22;11447;50.562;8.504;2023-03-16T15:47:10;10.10;59.60
22562;DHT22;11447;50.562;8.504;2023-03-16T15:49:37;10.00;58.40
22562;DHT22;11447;50.562;8.504;2023-03-16T18:59:31;7.30;69.90
22562;DHT22;11447;50.562;8.504;2023-03-16T19:02:00;7.20;69.90
22562;DHT22;11447;50.562;8.504;2023-03-16T19:04:27;7.20;70.10
22562;DHT22;11447;50.562;8.504;2023-03-16T19:06:55;7.20;70.00
22562;DHT22;11447;50.562;8.504;2023-03-16T19:09:28;7.00;70.30
22562;DHT22;11447;50.562;8.504;2023-03-16T19:11:55;7.10;70.10
22562;DHT22;11447;50.562;8.504;2023-03-16T19:14:25;7.00;70.30
22562;DHT22;11447;50.562;8.504;2023-03-16T19:16:53;7.20;69.90
22562;DHT22;11447;50.562;8.504;2023-03-16T19:19:20;7.10;69.70
22562;DHT22;11447;50.562;8.504;2023-03-16T19:21:47;7.10;70.00
22562;DHT22;11447;50.562;8.504;2023-03-16T19:26:50;7.10;70.10
22562;DHT22;11447;50.562;8.504;2023-03-16T19:29:18;7.10;70.20
22562;DHT22;11447;50.562;8.504;2023-03-16T19:31:44;6.80;70.60
22562;DHT22;11447;50.562;8.504;2023-03-16T19:34:17;6.70;71.40
22562;DHT22;11447;50.562;8.504;2023-03-16T19:36:44;6.70;71.20
22562;DHT22;11447;50.562;8.504;2023-03-16T19:39:11;6.60;71.60
22562;DHT22;11447;50.562;8.504;2023-03-16T19:41:38;6.60;71.80
22562;DHT22;11447;50.562;8.504;2023-03-16T19:46:40;6.30;72.20
22562;DHT22;11447;50.562;8.504;2023-03-16T19:49:23;6.50;71.70
22562;DHT22;11447;50.562;8.504;2023-03-16T19:51:52;6.60;71.70
22562;DHT22;11447;50.562;8.504;2023-03-16T19:54:23;6.30;72.00
22562;DHT22;11447;50.562;8.504;2023-03-16T19:56:50;6.40;72.30
22562;DHT22;11447;50.562;8.504;2023-03-16T19:59:17;6.40;72.10
22562;DHT22;11447;50.562;8.504;2023-03-16T20:01:45;6.30;71.90
22562;DHT22;11447;50.562;8.504;2023-03-16T20:04:22;6.50;71.80
22562;DHT22;11447;50.562;8.504;2023-03-16T20:06:49;6.50;71.50
22562;DHT22;11447;50.562;8.504;2023-03-16T20:09:16;6.40;71.70
22562;DHT22;11447;50.562;8.504;2023-03-16T20:11:47;6.40;71.70
22562;DHT22;11447;50.562;8.504;2023-03-16T20:14:18;6.50;71.20
22562;DHT22;11447;50.562;8.504;2023-03-16T20:16:46;6.50;71.60
22562;DHT22;11447;50.562;8.504;2023-03-16T20:19:13;6.30;71.90
22562;DHT22;11447;50.562;8.504;2023-03-16T20:21:41;6.10;72.60
22562;DHT22;11447;50.562;8.504;2023-03-16T20:24:18;6.10;72.30
22562;DHT22;11447;50.562;8.504;2023-03-16T20:26:46;6.30;71.90
22562;DHT22;11447;50.562;8.504;2023-03-16T20:29:19;6.40;71.50
22562;DHT22;11447;50.562;8.504;2023-03-16T20:31:47;6.30;71.60
22562;DHT22;11447;50.562;8.504;2023-03-16T20:34:17;6.40;71.30
22562;DHT22;11447;50.562;8.504;2023-03-16T20:36:48;6.30;71.70
22562;DHT22;11447;50.562;8.504;2023-03-16T20:39:14;6.40;71.10
22562;DHT22;11447;50.562;8.504;2023-03-16T20:41:43;6.60;70.70
22562;DHT22;11447;50.562;8.504;2023-03-16T20:44:16;6.50;70.20
22562;DHT22;11447;50.562;8.504;2023-03-16T20:46:43;6.40;70.90
22562;DHT22;11447;50.562;8.504;2023-03-16T20:51:50;5.90;72.10
22562;DHT22;11447;50.562;8.504;2023-03-16T20:54:17;6.00;72.50
22562;DHT22;11447;50.562;8.504;2023-03-16T20:56:44;6.00;72.50
22562;DHT22;11447;50.562;8.504;2023-03-16T20:59:15;5.90;72.80
22562;DHT22;11447;50.562;8.504;2023-03-16T21:01:42;6.00;72.30
22562;DHT22;11447;50.562;8.504;2023-03-16T21:04:24;6.00;72.40
22562;DHT22;11447;50.562;8.504;2023-03-16T21:06:52;6.00;72.30
22562;DHT22;11447;50.562;8.504;2023-03-16T21:09:21;5.90;72.40
22562;DHT22;11447;50.562;8.504;2023-03-16T21:11:53;6.00;72.10
22562;DHT22;11447;50.562;8.504;2023-03-16T21:14:20;5.90;72.70
22562;DHT22;11447;50.562;8.504;2023-03-16T21:16:48;6.10;72.20